createdAt,value
2018-02-18T00:02:16.053Z,59.60
2018-02-18T00:04:43.539Z,54.47
2018-02-18T00:07:11.886Z,63.40
2018-02-18T00:09:39.365Z,59.90
2018-02-18T00:12:08.386Z,56.60
2018-02-18T00:14:41.471Z,53.17
2018-02-18T00:17:08.971Z,52.47
2018-02-18T00:19:36.483Z,58.30
2018-02-18T00:22:03.951Z,55.10
2018-02-18T00:24:32.286Z,59.00
2018-02-18T00:26:59.796Z,64.23
2018-02-18T00:29:27.296Z,57.73
2018-02-18T00:31:55.059Z,55.00
2018-02-18T00:34:22.584Z,51.63
2018-02-18T00:36:50.077Z,62.40
2018-02-18T00:39:17.997Z,63.17
2018-02-18T00:41:45.515Z,61.53
2018-02-18T00:44:13.022Z,52.40
2018-02-18T00:46:41.331Z,47.17
2018-02-18T00:49:09.602Z,52.23
2018-02-18T00:51:37.103Z,60.20
2018-02-18T00:54:04.615Z,45.67
2018-02-18T00:56:32.116Z,55.40
2018-02-18T00:59:00.598Z,54.90
2018-02-18T01:01:28.090Z,53.70
2018-02-18T01:03:55.574Z,68.63
2018-02-18T01:06:23.084Z,54.13
2018-02-18T01:08:50.579Z,57.57
2018-02-18T01:11:18.088Z,53.90
2018-02-18T01:13:45.702Z,49.60
2018-02-18T01:16:13.226Z,48.10
2018-02-18T01:18:40.731Z,55.53
2018-02-18T01:21:09.099Z,46.67
2018-02-18T01:23:36.598Z,46.30
2018-02-18T01:26:04.136Z,59.87
2018-02-18T01:28:32.391Z,51.33
2018-02-18T01:30:59.894Z,53.63
2018-02-18T01:33:27.404Z,61.13
2018-02-18T01:35:54.903Z,58.33
2018-02-18T01:38:23.149Z,51.23
2018-02-18T01:40:50.618Z,54.17
2018-02-18T01:43:18.862Z,53.93
2018-02-18T01:45:46.470Z,51.00
2018-02-18T01:48:13.952Z,48.10
2018-02-18T01:50:41.485Z,53.77
2018-02-18T01:53:09.047Z,46.70
2018-02-18T01:55:37.414Z,48.77
2018-02-18T01:58:05.702Z,53.13
2018-02-18T02:00:33.312Z,52.33
2018-02-18T02:03:02.059Z,63.63
2018-02-18T02:05:29.591Z,54.30
2018-02-18T02:07:57.888Z,54.70
2018-02-18T02:10:25.585Z,48.10
2018-02-18T02:12:53.167Z,52.70
2018-02-18T02:15:22.387Z,51.60
2018-02-18T02:17:51.702Z,57.27
2018-02-18T02:20:19.276Z,51.50
2018-02-18T02:22:46.880Z,65.67
2018-02-18T02:25:14.360Z,55.90
2018-02-18T02:27:42.630Z,48.70
2018-02-18T02:30:10.908Z,61.03
2018-02-18T02:32:39.145Z,49.80
2018-02-18T02:35:06.651Z,53.37
2018-02-18T02:37:35.156Z,53.80
2018-02-18T02:40:02.652Z,51.47
2018-02-18T02:42:30.154Z,57.80
2018-02-18T02:44:57.736Z,63.87
2018-02-18T02:47:25.223Z,55.40
2018-02-18T02:49:52.718Z,61.53
2018-02-18T02:52:21.010Z,68.40
2018-02-18T02:54:48.557Z,60.67
2018-02-18T02:57:16.108Z,56.50
2018-02-18T02:59:44.354Z,67.13
2018-02-18T03:02:12.634Z,71.10
2018-02-18T03:04:40.129Z,56.03
2018-02-18T03:07:07.662Z,50.53
2018-02-18T03:09:35.919Z,54.20
2018-02-18T03:12:03.409Z,58.43
2018-02-18T03:14:31.654Z,52.10
2018-02-18T03:16:59.150Z,64.93
2018-02-18T03:19:26.657Z,56.37
2018-02-18T03:21:54.169Z,58.27
2018-02-18T03:24:21.694Z,56.27
2018-02-18T03:26:49.174Z,55.73
2018-02-18T03:29:18.273Z,66.33
2018-02-18T03:31:46.523Z,56.43
2018-02-18T03:34:14.034Z,70.20
2018-02-18T03:36:41.523Z,57.73
2018-02-18T03:39:09.027Z,64.10
2018-02-18T03:41:36.527Z,68.53
2018-02-18T03:44:04.027Z,62.27
2018-02-18T03:46:32.314Z,63.27
2018-02-18T03:48:59.842Z,59.73
2018-02-18T03:51:27.414Z,60.10
2018-02-18T03:53:55.690Z,59.70
2018-02-18T03:56:23.154Z,64.50
2018-02-18T03:58:52.287Z,59.03
2018-02-18T04:01:19.794Z,57.60
2018-02-18T04:03:48.054Z,66.93
2018-02-18T04:06:15.533Z,67.57
2018-02-18T04:08:43.011Z,55.13
2018-02-18T04:11:10.723Z,58.80
2018-02-18T04:13:38.230Z,60.13
2018-02-18T04:16:06.475Z,53.87
2018-02-18T04:18:33.972Z,68.87
2018-02-18T04:21:01.474Z,50.47
2018-02-18T04:23:28.952Z,63.50
2018-02-18T04:25:56.438Z,62.47
2018-02-18T04:28:23.924Z,57.53
2018-02-18T04:30:51.431Z,63.27
2018-02-18T04:33:19.678Z,58.87
2018-02-18T04:35:47.170Z,63.13
2018-02-18T04:38:14.670Z,62.90
2018-02-18T04:40:42.188Z,70.43
2018-02-18T04:43:10.449Z,61.70
2018-02-18T04:45:38.746Z,55.87
2018-02-18T04:48:06.247Z,59.67
2018-02-18T04:50:33.727Z,61.07
2018-02-18T04:53:01.258Z,69.00
2018-02-18T04:55:28.721Z,63.90
2018-02-18T04:57:56.194Z,52.70
2018-02-18T05:00:23.694Z,54.63
2018-02-18T05:02:51.179Z,68.67
2018-02-18T05:05:18.667Z,65.33
2018-02-18T05:07:46.199Z,67.03
2018-02-18T05:10:13.693Z,64.83
2018-02-18T05:12:42.690Z,71.13
2018-02-18T05:15:10.350Z,55.00
2018-02-18T05:17:37.854Z,68.60
2018-02-18T05:20:05.460Z,62.27
2018-02-18T05:22:32.983Z,65.00
2018-02-18T05:25:00.962Z,64.43
2018-02-18T05:27:28.439Z,55.63
2018-02-18T05:29:55.910Z,53.27
2018-02-18T05:32:23.436Z,59.10
2018-02-18T05:34:51.642Z,73.70
2018-02-18T05:37:19.122Z,56.50
2018-02-18T05:39:46.611Z,78.40
2018-02-18T05:42:14.094Z,68.33
2018-02-18T05:44:41.596Z,66.23
2018-02-18T05:47:09.091Z,63.57
2018-02-18T05:49:36.561Z,62.10
2018-02-18T05:52:04.043Z,65.97
2018-02-18T05:54:31.526Z,64.90
2018-02-18T05:56:59.019Z,64.73
2018-02-18T05:59:27.503Z,60.63
2018-02-18T06:01:54.973Z,74.53
2018-02-18T06:04:22.527Z,69.70
2018-02-18T06:06:50.019Z,66.83
2018-02-18T06:09:17.482Z,69.33
2018-02-18T06:11:45.746Z,68.93
2018-02-18T06:14:13.212Z,61.97
2018-02-18T06:16:42.214Z,64.70
2018-02-18T06:19:10.452Z,77.23
2018-02-18T06:21:38.039Z,70.70
2018-02-18T06:24:06.304Z,65.70
2018-02-18T06:26:33.789Z,65.70
2018-02-18T06:29:02.135Z,73.00
2018-02-18T06:31:29.602Z,61.60
2018-02-18T06:33:58.026Z,62.87
2018-02-18T06:36:25.491Z,66.97
2018-02-18T06:38:52.969Z,60.33
2018-02-18T06:41:20.452Z,73.17
2018-02-18T06:43:47.945Z,61.20
2018-02-18T06:46:15.431Z,58.20
2018-02-18T06:48:42.926Z,57.30
2018-02-18T06:51:12.042Z,58.50
2018-02-18T06:53:40.283Z,63.10
2018-02-18T06:56:10.168Z,77.35
2018-02-18T06:58:39.837Z,59.30
2018-02-18T07:01:09.369Z,80.90
2018-02-18T07:03:38.241Z,57.37
2018-02-18T07:06:07.704Z,66.60
2018-02-18T07:08:35.179Z,62.40
2018-02-18T07:11:03.423Z,71.87
2018-02-18T07:13:31.429Z,71.60
2018-02-18T07:16:00.410Z,69.53
2018-02-18T07:18:28.683Z,81.73
2018-02-18T07:20:56.932Z,56.93
2018-02-18T07:23:24.415Z,74.07
2018-02-18T07:25:52.659Z,80.13
2018-02-18T07:28:21.036Z,67.83
2018-02-18T07:30:49.317Z,77.00
2018-02-18T07:33:16.786Z,79.47
2018-02-18T07:35:44.262Z,62.50
2018-02-18T07:38:13.242Z,74.90
2018-02-18T07:40:41.345Z,69.63
2018-02-18T07:43:08.837Z,67.77
2018-02-18T07:45:36.317Z,60.10
2018-02-18T07:48:03.839Z,67.67
2018-02-18T07:50:31.303Z,70.83
2018-02-18T07:52:58.786Z,62.23
2018-02-18T07:55:26.523Z,67.83
2018-02-18T07:57:54.006Z,59.57
2018-02-18T08:00:21.582Z,74.90
2018-02-18T08:02:49.067Z,72.90
2018-02-18T08:05:17.300Z,77.93
2018-02-18T08:07:44.778Z,68.33
2018-02-18T08:10:13.539Z,72.00
2018-02-18T08:12:42.094Z,72.90
2018-02-18T08:15:09.560Z,59.87
2018-02-18T08:17:37.048Z,63.07
2018-02-18T08:20:04.530Z,67.83
2018-02-18T08:22:32.763Z,60.77
2018-02-18T08:25:00.259Z,54.10
2018-02-18T08:27:28.499Z,68.60
2018-02-18T08:29:55.974Z,69.00
2018-02-18T08:32:23.467Z,64.37
2018-02-18T08:34:50.965Z,61.47
2018-02-18T08:37:19.233Z,67.60
2018-02-18T08:39:46.707Z,59.53
2018-02-18T08:42:14.183Z,62.30
2018-02-18T08:44:41.656Z,58.77
2018-02-18T08:47:09.932Z,66.57
2018-02-18T08:49:38.187Z,54.80
2018-02-18T08:52:05.673Z,54.17
2018-02-18T08:54:33.926Z,62.80
2018-02-18T08:57:01.425Z,54.97
2018-02-18T08:59:28.924Z,58.30
2018-02-18T09:01:56.395Z,54.87
2018-02-18T09:04:24.643Z,64.10
2018-02-18T09:06:52.119Z,65.37
2018-02-18T09:09:19.742Z,62.07
2018-02-18T09:11:47.228Z,60.77
2018-02-18T09:14:14.723Z,55.37
2018-02-18T09:16:43.067Z,60.50
2018-02-18T09:19:10.551Z,54.07
2018-02-18T09:21:38.802Z,57.97
2018-02-18T09:24:06.279Z,59.20
2018-02-18T09:26:34.585Z,50.80
2018-02-18T09:29:02.803Z,56.43
2018-02-18T09:31:30.375Z,55.97
2018-02-18T09:33:59.371Z,52.60
2018-02-18T09:36:26.839Z,59.03
2018-02-18T09:38:55.086Z,57.50
2018-02-18T09:41:22.573Z,50.33
2018-02-18T09:43:50.809Z,47.90
2018-02-18T09:46:18.283Z,46.37
2018-02-18T09:48:45.772Z,45.00
2018-02-18T09:51:14.027Z,66.30
2018-02-18T09:53:42.787Z,58.07
2018-02-18T09:56:10.251Z,59.93
2018-02-18T09:58:38.351Z,50.33
2018-02-18T10:01:06.622Z,49.00
2018-02-18T10:03:34.884Z,56.20
2018-02-18T10:06:02.358Z,54.20
2018-02-18T10:08:30.623Z,58.37
2018-02-18T10:10:58.868Z,55.90
2018-02-18T10:13:26.467Z,56.27
2018-02-18T10:15:54.223Z,56.67
2018-02-18T10:18:21.784Z,54.20
2018-02-18T10:20:50.011Z,48.83
2018-02-18T10:23:17.487Z,57.20
2018-02-18T10:25:45.118Z,48.17
2018-02-18T10:28:12.630Z,54.43
2018-02-18T10:30:40.922Z,58.47
2018-02-18T10:33:09.168Z,62.93
2018-02-18T10:35:37.437Z,48.87
2018-02-18T10:38:05.431Z,61.40
2018-02-18T10:40:32.911Z,61.00
2018-02-18T10:43:01.233Z,53.60
2018-02-18T10:45:29.503Z,53.23
2018-02-18T10:47:57.000Z,53.33
2018-02-18T10:50:24.493Z,48.77
2018-02-18T10:52:51.984Z,56.13
2018-02-18T10:55:19.617Z,53.20
2018-02-18T10:57:47.108Z,51.40
2018-02-18T11:00:14.588Z,55.87
2018-02-18T11:02:42.883Z,44.53
2018-02-18T11:05:11.988Z,54.00
2018-02-18T11:07:39.468Z,47.07
2018-02-18T11:10:07.784Z,52.90
2018-02-18T11:12:35.298Z,51.40
2018-02-18T11:15:02.783Z,61.93
2018-02-18T11:17:30.291Z,50.13
2018-02-18T11:19:58.559Z,54.30
2018-02-18T11:22:26.124Z,50.80
2018-02-18T11:24:54.365Z,62.23
2018-02-18T11:27:22.792Z,50.90
2018-02-18T11:29:50.271Z,51.40
2018-02-18T11:32:17.746Z,50.93
2018-02-18T11:34:45.203Z,60.27
2018-02-18T11:37:13.559Z,54.43
2018-02-18T11:39:41.123Z,53.10
2018-02-18T11:42:08.668Z,58.57
2018-02-18T11:44:36.915Z,51.50
2018-02-18T11:47:05.159Z,54.73
2018-02-18T11:49:32.654Z,55.40
2018-02-18T11:52:00.336Z,58.43
2018-02-18T11:54:27.802Z,58.73
2018-02-18T11:56:55.272Z,60.27
2018-02-18T11:59:22.758Z,55.23
2018-02-18T12:01:50.224Z,51.00
2018-02-18T12:04:18.462Z,55.53
2018-02-18T12:06:45.965Z,53.93
2018-02-18T12:09:14.200Z,50.93
2018-02-18T12:11:41.779Z,55.43
2018-02-18T12:14:09.244Z,65.70
2018-02-18T12:16:37.474Z,54.40
2018-02-18T12:19:04.943Z,55.57
2018-02-18T12:21:32.407Z,63.97
2018-02-18T12:23:59.879Z,47.50
2018-02-18T12:26:27.372Z,60.43
2018-02-18T12:28:54.853Z,48.73
2018-02-18T12:31:22.330Z,54.57
2018-02-18T12:33:49.807Z,55.40
2018-02-18T12:36:17.329Z,54.57
2018-02-18T12:38:44.874Z,47.80
2018-02-18T12:41:12.360Z,50.27
2018-02-18T12:43:40.708Z,48.60
2018-02-18T12:46:08.193Z,57.87
2018-02-18T12:48:35.666Z,56.73
2018-02-18T12:51:03.130Z,57.57
2018-02-18T12:53:30.620Z,62.67
2018-02-18T12:55:58.100Z,52.90
2018-02-18T12:58:25.622Z,55.90
2018-02-18T13:00:54.467Z,59.30
2018-02-18T13:03:22.419Z,66.07
2018-02-18T13:05:49.891Z,58.33
2018-02-18T13:08:17.359Z,47.83
2018-02-18T13:10:44.873Z,52.50
2018-02-18T13:13:12.382Z,53.70
2018-02-18T13:15:39.889Z,51.00
2018-02-18T13:18:07.388Z,47.57
2018-02-18T13:20:34.975Z,45.00
2018-02-18T13:23:02.531Z,49.73
2018-02-18T13:25:30.032Z,49.13
2018-02-18T13:27:57.515Z,54.27
2018-02-18T13:30:24.999Z,43.00
2018-02-18T13:32:52.484Z,51.87
2018-02-18T13:35:19.958Z,40.73
2018-02-18T13:37:47.537Z,50.40
2018-02-18T13:40:15.735Z,42.00
2018-02-18T13:42:43.295Z,45.13
2018-02-18T13:45:10.861Z,50.33
2018-02-18T13:47:39.190Z,49.40
2018-02-18T13:50:07.718Z,43.60
2018-02-18T13:52:35.821Z,54.90
2018-02-18T13:55:04.062Z,53.07
2018-02-18T13:57:31.559Z,43.40
2018-02-18T13:59:59.076Z,43.83
2018-02-18T14:02:27.935Z,51.83
2018-02-18T14:04:55.599Z,43.57
2018-02-18T14:07:23.712Z,44.40
2018-02-18T14:09:51.962Z,46.50
2018-02-18T14:12:19.414Z,56.60
2018-02-18T14:14:46.916Z,44.33
2018-02-18T14:17:15.202Z,38.40
2018-02-18T14:19:42.682Z,46.73
2018-02-18T14:22:10.175Z,45.23
2018-02-18T14:24:37.738Z,47.73
2018-02-18T14:27:05.216Z,39.70
2018-02-18T14:29:33.473Z,43.33
2018-02-18T14:32:01.060Z,40.57
2018-02-18T14:34:28.552Z,45.63
2018-02-18T14:36:56.294Z,35.03
2018-02-18T14:39:23.798Z,44.07
2018-02-18T14:42:03.216Z,40.10
2018-02-18T14:44:42.447Z,49.00
2018-02-18T14:47:21.728Z,37.23
2018-02-18T14:50:02.283Z,40.03
2018-02-18T14:52:42.536Z,46.23
2018-02-18T14:55:21.947Z,51.37
2018-02-18T14:57:49.420Z,46.23
2018-02-18T15:00:16.937Z,49.13
2018-02-18T15:02:44.413Z,39.67
2018-02-18T15:05:12.052Z,46.33
2018-02-18T15:07:39.567Z,46.53
2018-02-18T15:10:07.040Z,44.13
2018-02-18T15:12:35.404Z,41.20
2018-02-18T15:15:02.879Z,46.47
2018-02-18T15:17:31.140Z,49.00
2018-02-18T15:19:59.419Z,48.50
2018-02-18T15:22:27.242Z,44.43
2018-02-18T15:24:55.034Z,45.93
2018-02-18T15:27:22.867Z,50.30
2018-02-18T15:29:50.651Z,48.70
2018-02-18T15:32:18.140Z,43.43
2018-02-18T15:34:47.104Z,40.03
2018-02-18T15:37:15.369Z,43.30
2018-02-18T15:39:43.831Z,51.77
2018-02-18T15:42:11.456Z,45.83
2018-02-18T15:44:40.628Z,50.53
2018-02-18T15:47:09.037Z,47.00
2018-02-18T15:49:37.355Z,42.43
2018-02-18T15:52:04.820Z,47.30
2018-02-18T15:54:32.322Z,50.13
2018-02-18T15:57:01.244Z,43.30
2018-02-18T15:59:29.722Z,45.97
2018-02-18T16:01:57.208Z,55.20
2018-02-18T16:04:24.683Z,46.07
2018-02-18T16:06:52.239Z,50.27
2018-02-18T16:09:20.070Z,48.77
2018-02-18T16:11:47.562Z,47.63
2018-02-18T16:14:15.831Z,53.27
2018-02-18T16:16:43.314Z,48.50
2018-02-18T16:19:12.337Z,49.40
2018-02-18T16:21:39.819Z,48.63
2018-02-18T16:24:07.329Z,44.67
2018-02-18T16:26:35.672Z,50.50
2018-02-18T16:29:03.155Z,58.10
2018-02-18T16:31:31.458Z,56.00
2018-02-18T16:33:58.953Z,42.57
2018-02-18T16:36:26.435Z,50.17
2018-02-18T16:38:53.985Z,47.13
2018-02-18T16:41:21.508Z,46.67
2018-02-18T16:43:48.995Z,49.40
2018-02-18T16:46:16.483Z,56.07
2018-02-18T16:48:45.338Z,53.07
2018-02-18T16:51:12.803Z,67.20
2018-02-18T16:53:40.401Z,59.17
2018-02-18T16:56:07.898Z,63.50
2018-02-18T16:58:35.351Z,55.77
2018-02-18T17:01:02.827Z,55.87
2018-02-18T17:03:30.324Z,52.83
2018-02-18T17:05:57.836Z,47.13
2018-02-18T17:08:25.842Z,56.87
2018-02-18T17:10:54.080Z,54.60
2018-02-18T17:13:21.538Z,58.50
2018-02-18T17:15:49.063Z,60.87
2018-02-18T17:18:16.525Z,60.53
2018-02-18T17:20:44.000Z,54.13
2018-02-18T17:23:11.486Z,51.97
2018-02-18T17:25:40.516Z,56.57
2018-02-18T17:28:08.799Z,54.87
2018-02-18T17:30:36.300Z,70.80
2018-02-18T17:33:03.781Z,53.90
2018-02-18T17:35:32.167Z,70.00
2018-02-18T17:38:00.412Z,64.20
2018-02-18T17:40:27.941Z,54.27
2018-02-18T17:42:55.390Z,63.57
2018-02-18T17:45:22.856Z,51.63
2018-02-18T17:47:50.399Z,62.23
2018-02-18T17:50:17.886Z,48.30
2018-02-18T17:52:45.373Z,59.20
2018-02-18T17:55:12.860Z,46.10
2018-02-18T17:57:40.686Z,55.30
2018-02-18T18:00:08.166Z,47.10
2018-02-18T18:02:36.420Z,56.73
2018-02-18T18:05:03.880Z,57.00
2018-02-18T18:07:31.339Z,57.13
2018-02-18T18:10:00.209Z,55.37
2018-02-18T18:12:28.179Z,59.60
2018-02-18T18:14:55.652Z,67.60
2018-02-18T18:17:23.135Z,56.00
2018-02-18T18:19:50.596Z,55.70
2018-02-18T18:22:18.068Z,63.87
2018-02-18T18:24:45.591Z,64.50
2018-02-18T18:27:13.811Z,68.93
2018-02-18T18:29:41.274Z,69.90
2018-02-18T18:32:09.500Z,59.33
2018-02-18T18:34:37.734Z,62.50
2018-02-18T18:37:05.199Z,64.67
2018-02-18T18:39:32.806Z,64.93
2018-02-18T18:42:00.270Z,63.53
2018-02-18T18:44:27.734Z,66.90
2018-02-18T18:46:55.247Z,72.83
2018-02-18T18:49:22.715Z,65.03
2018-02-18T18:51:50.943Z,68.13
2018-02-18T18:54:18.435Z,66.80
2018-02-18T18:56:45.895Z,62.40
2018-02-18T18:59:14.124Z,63.80
2018-02-18T19:01:41.674Z,68.57
2018-02-18T19:04:09.139Z,60.47
2018-02-18T19:06:36.595Z,62.70
2018-02-18T19:09:04.099Z,66.37
2018-02-18T19:11:32.339Z,59.87
2018-02-18T19:13:59.825Z,61.67
2018-02-18T19:16:27.336Z,54.47
2018-02-18T19:18:54.803Z,63.47
2018-02-18T19:21:22.272Z,57.47
2018-02-18T19:23:49.768Z,61.20
2018-02-18T19:26:17.996Z,54.73
2018-02-18T19:28:45.475Z,57.00
2018-02-18T19:31:12.963Z,66.47
2018-02-18T19:33:41.189Z,55.53
2018-02-18T19:36:08.655Z,59.93
2018-02-18T19:38:36.147Z,56.90
2018-02-18T19:41:03.618Z,59.83
2018-02-18T19:43:31.140Z,63.40
2018-02-18T19:45:58.608Z,63.37
2018-02-18T19:48:26.075Z,65.37
2018-02-18T19:50:54.332Z,68.27
2018-02-18T19:53:21.800Z,61.93
2018-02-18T19:55:50.032Z,64.60
2018-02-18T19:58:17.527Z,68.80
2018-02-18T20:00:45.758Z,66.83
2018-02-18T20:03:13.260Z,56.23
2018-02-18T20:05:40.749Z,59.93
2018-02-18T20:08:08.228Z,63.93
2018-02-18T20:10:36.762Z,58.20
2018-02-18T20:13:05.026Z,60.73
2018-02-18T20:15:32.595Z,58.43
2018-02-18T20:18:00.839Z,59.50
2018-02-18T20:20:28.423Z,69.40
2018-02-18T20:22:56.655Z,66.07
2018-02-18T20:25:24.134Z,65.67
2018-02-18T20:27:52.098Z,72.33
2018-02-18T20:30:19.584Z,67.53
2018-02-18T20:32:47.901Z,57.93
2018-02-18T20:35:15.384Z,68.13
2018-02-18T20:37:42.868Z,68.00
2018-02-18T20:40:10.340Z,63.90
2018-02-18T20:42:38.588Z,67.33
2018-02-18T20:45:06.154Z,58.47
2018-02-18T20:47:33.731Z,69.20
2018-02-18T20:50:01.981Z,55.47
2018-02-18T20:52:29.448Z,66.50
2018-02-18T20:54:56.920Z,68.57
2018-02-18T20:57:25.175Z,56.17
2018-02-18T20:59:52.741Z,62.97
2018-02-18T21:02:20.203Z,76.87
2018-02-18T21:04:48.467Z,66.77
2018-02-18T21:07:15.942Z,69.27
2018-02-18T21:09:43.408Z,66.97
2018-02-18T21:12:12.259Z,63.57
2018-02-18T21:14:39.741Z,58.07
2018-02-18T21:17:08.710Z,74.53
2018-02-18T21:19:36.288Z,75.07
2018-02-18T21:22:04.560Z,77.70
2018-02-18T21:24:32.038Z,79.83
2018-02-18T21:27:00.279Z,72.07
2018-02-18T21:29:28.543Z,67.93
2018-02-18T21:31:56.606Z,69.80
2018-02-18T21:34:24.076Z,63.53
2018-02-18T21:36:51.559Z,67.27
2018-02-18T21:39:19.043Z,70.90
2018-02-18T21:41:46.548Z,64.63
2018-02-18T21:44:14.006Z,73.67
2018-02-18T21:46:41.604Z,65.10
2018-02-18T21:49:09.841Z,67.77
2018-02-18T21:51:37.327Z,68.23
2018-02-18T21:54:05.619Z,63.40
2018-02-18T21:56:33.863Z,65.83
2018-02-18T21:59:01.330Z,72.00
2018-02-18T22:01:28.820Z,67.17
2018-02-18T22:03:56.343Z,64.90
2018-02-18T22:06:24.584Z,61.43
2018-02-18T22:08:52.060Z,70.13
2018-02-18T22:11:19.532Z,70.03
2018-02-18T22:13:47.809Z,58.60
2018-02-18T22:16:16.116Z,67.20
2018-02-18T22:18:43.626Z,62.00
2018-02-18T22:21:11.108Z,60.30
2018-02-18T22:23:39.354Z,66.10
2018-02-18T22:26:06.987Z,62.90
2018-02-18T22:28:34.446Z,65.93
2018-02-18T22:31:01.989Z,65.30
2018-02-18T22:33:29.507Z,71.63
2018-02-18T22:35:57.774Z,60.37
2018-02-18T22:38:25.255Z,57.63
2018-02-18T22:40:53.483Z,71.20
2018-02-18T22:43:20.947Z,67.33
2018-02-18T22:45:48.432Z,69.73
2018-02-18T22:48:15.945Z,60.90
2018-02-18T22:50:43.407Z,59.00
2018-02-18T22:53:10.891Z,62.00
2018-02-18T22:55:38.400Z,61.37
2018-02-18T22:58:05.872Z,59.67
2018-02-18T23:00:33.390Z,59.77
2018-02-18T23:03:01.631Z,63.80
2018-02-18T23:05:36.390Z,64.50
2018-02-18T23:08:04.633Z,66.37
2018-02-18T23:10:32.143Z,63.37
2018-02-18T23:12:59.641Z,62.27
2018-02-18T23:15:27.103Z,64.23
2018-02-18T23:17:54.642Z,66.93
2018-02-18T23:20:22.148Z,69.67
2018-02-18T23:22:50.371Z,53.40
2018-02-18T23:25:18.789Z,70.50
2018-02-18T23:27:46.340Z,60.50
2018-02-18T23:30:13.834Z,67.43
2018-02-18T23:32:42.062Z,62.43
2018-02-18T23:35:10.513Z,56.17
2018-02-18T23:40:14.109Z,60.80
2018-02-18T23:42:41.748Z,63.53
2018-02-18T23:45:09.210Z,57.33
2018-02-18T23:47:37.462Z,59.03
2018-02-18T23:50:04.949Z,66.70
2018-02-18T23:52:33.174Z,59.40
2018-02-18T23:55:00.653Z,57.23
2018-02-18T23:57:28.243Z,63.57
2018-02-18T23:59:56.822Z,57.10
